Stamps, Arkansas
Current Conditions -  °F | °C
As of 11:53 PM on Tuesday 25 Nov 2014 (Local Time) from KTXK Reporting Station
Clear Clear  
Wind Chill: 40°   Ceiling: Unl
Heat Index: 44°   Visibility: 10mi
Dew Point: 32°   Wind: 7mph
Humidity: 63%   Direction: 200°SSW
Pressure: 30.13"   Gusts: NA
Location:  33.37°N, 93.5°W
Report Text: KTXK 260553Z AUTO 20006KT 10SM CLR 07/00 A3013 RMK AO2 SLP201 T00670000 10089 20056 401500006 58016
Loading
Personal Weather Stations






























Interactive Weather Map New forecast layout! Learn more

10-Day Weather Forecast

Advertisements
Track Severe Weather on mobile